createdAt,value
2019-03-28T00:00:44.517Z,16.50
2019-03-28T00:03:14.025Z,16.50
2019-03-28T00:05:43.576Z,16.50
2019-03-28T00:08:13.050Z,16.50
2019-03-28T00:10:42.569Z,16.50
2019-03-28T00:13:12.173Z,16.50
2019-03-28T00:15:42.768Z,16.50
2019-03-28T00:18:12.349Z,16.50
2019-03-28T00:20:41.941Z,16.50
2019-03-28T00:23:28.596Z,16.50
2019-03-28T00:25:58.102Z,16.50
2019-03-28T00:28:27.638Z,16.50
2019-03-28T00:30:57.148Z,16.50
2019-03-28T00:33:26.656Z,16.50
2019-03-28T00:35:56.244Z,16.50
2019-03-28T00:38:25.833Z,16.50
2019-03-28T00:40:55.387Z,16.50
2019-03-28T00:43:25.274Z,16.50
2019-03-28T00:45:54.764Z,16.50
2019-03-28T00:48:24.279Z,16.50
2019-03-28T00:50:53.780Z,16.50
2019-03-28T00:53:23.298Z,16.50
2019-03-28T00:55:52.870Z,16.50
2019-03-28T00:58:22.382Z,16.50
2019-03-28T01:00:51.881Z,16.50
2019-03-28T01:03:21.405Z,16.40
2019-03-28T01:05:50.917Z,16.40
2019-03-28T01:08:20.501Z,16.40
2019-03-28T01:10:50.028Z,16.40
2019-03-28T01:13:19.537Z,16.40
2019-03-28T01:15:49.314Z,16.40
2019-03-28T01:18:18.952Z,16.40
2019-03-28T01:20:48.545Z,16.40
2019-03-28T01:23:18.068Z,16.30
2019-03-28T01:25:47.637Z,16.40
2019-03-28T01:28:17.177Z,16.40
2019-03-28T01:30:46.677Z,16.40
2019-03-28T01:33:16.181Z,16.40
2019-03-28T01:35:45.711Z,16.40
2019-03-28T01:38:15.208Z,16.30
2019-03-28T01:40:44.713Z,16.30
2019-03-28T01:43:14.697Z,16.30
2019-03-28T01:45:44.255Z,16.30
2019-03-28T01:48:13.737Z,16.30
2019-03-28T01:50:43.247Z,16.30
2019-03-28T01:53:12.834Z,16.30
2019-03-28T01:55:42.349Z,16.30
2019-03-28T01:58:11.861Z,16.30
2019-03-28T02:00:41.445Z,16.30
2019-03-28T02:03:11.306Z,16.30
2019-03-28T02:05:40.892Z,16.30
2019-03-28T02:08:10.385Z,16.30
2019-03-28T02:10:39.896Z,16.20
2019-03-28T02:13:10.453Z,16.20
2019-03-28T02:15:39.969Z,16.20
2019-03-28T02:18:09.489Z,16.20
2019-03-28T02:20:39.001Z,16.20
2019-03-28T02:23:08.589Z,16.20
2019-03-28T02:25:38.083Z,16.20
2019-03-28T02:28:07.588Z,16.20
2019-03-28T02:30:37.095Z,16.20
2019-03-28T02:33:06.610Z,16.20
2019-03-28T02:35:36.124Z,16.20
2019-03-28T02:38:05.621Z,16.10
2019-03-28T02:40:35.149Z,16.20
2019-03-28T02:43:04.829Z,16.20
2019-03-28T02:45:34.341Z,16.20
2019-03-28T02:48:03.921Z,16.20
2019-03-28T02:50:33.476Z,16.10
2019-03-28T02:53:02.963Z,16.10
2019-03-28T02:55:32.469Z,16.10
2019-03-28T02:58:02.170Z,16.10
2019-03-28T03:00:31.745Z,16.10
2019-03-28T03:03:01.245Z,16.10
2019-03-28T03:05:30.758Z,16.10
2019-03-28T03:08:00.258Z,16.10
2019-03-28T03:10:29.759Z,16.10
2019-03-28T03:12:59.274Z,16.10
2019-03-28T03:15:29.926Z,16.10
2019-03-28T03:17:59.828Z,16.10
2019-03-28T03:20:29.356Z,16.10
2019-03-28T03:22:58.868Z,16.10
2019-03-28T03:25:28.387Z,16.10
2019-03-28T03:27:59.272Z,16.10
2019-03-28T03:30:31.333Z,16.10
2019-03-28T03:33:00.132Z,16.10
2019-03-28T03:35:29.641Z,16.20
2019-03-28T03:37:59.167Z,16.10
2019-03-28T03:40:28.680Z,16.10
2019-03-28T03:42:58.179Z,16.10
2019-03-28T03:45:27.684Z,16.10
2019-03-28T03:47:57.192Z,16.10
2019-03-28T03:50:28.951Z,16.10
2019-03-28T03:52:58.423Z,16.10
2019-03-28T03:55:28.109Z,16.10
2019-03-28T03:58:13.699Z,16.10
2019-03-28T04:00:34.818Z,16.10
2019-03-28T04:03:04.846Z,16.00
2019-03-28T04:05:34.348Z,16.00
2019-03-28T04:08:04.156Z,16.10
2019-03-28T04:10:33.674Z,16.00
2019-03-28T04:13:03.178Z,16.00
2019-03-28T04:15:32.709Z,16.00
2019-03-28T04:18:02.189Z,16.00
2019-03-28T04:20:31.701Z,16.00
2019-03-28T04:23:01.328Z,16.00
2019-03-28T04:25:30.841Z,16.00
2019-03-28T04:28:00.426Z,16.00
2019-03-28T04:30:29.950Z,16.00
2019-03-28T04:32:59.485Z,16.00
2019-03-28T04:35:28.997Z,16.00
2019-03-28T04:37:58.928Z,16.00
2019-03-28T04:40:28.509Z,16.00
2019-03-28T04:42:58.048Z,16.00
2019-03-28T04:45:27.549Z,15.90
2019-03-28T04:47:57.084Z,16.00
2019-03-28T04:50:26.618Z,16.00
2019-03-28T04:52:56.113Z,16.00
2019-03-28T04:55:25.640Z,15.90
2019-03-28T04:57:55.653Z,15.90
2019-03-28T05:00:26.129Z,15.90
2019-03-28T05:02:55.643Z,15.90
2019-03-28T05:05:25.156Z,15.90
2019-03-28T05:07:54.678Z,16.00
2019-03-28T05:10:24.212Z,15.90
2019-03-28T05:12:53.741Z,15.90
2019-03-28T05:15:23.249Z,15.90
2019-03-28T05:17:52.840Z,15.90
2019-03-28T05:20:22.436Z,15.90
2019-03-28T05:22:51.968Z,15.90
2019-03-28T05:25:22.556Z,15.90
2019-03-28T05:27:52.100Z,15.80
2019-03-28T05:30:21.632Z,15.90
2019-03-28T05:32:51.444Z,15.80
2019-03-28T05:35:20.969Z,15.80
2019-03-28T05:37:50.499Z,15.70
2019-03-28T05:40:22.665Z,15.70
2019-03-28T05:42:51.237Z,15.60
2019-03-28T05:45:20.764Z,15.60
2019-03-28T05:47:50.262Z,15.40
2019-03-28T05:50:19.813Z,15.30
2019-03-28T05:52:49.332Z,15.20
2019-03-28T05:55:18.939Z,15.10
2019-03-28T05:57:48.448Z,15.10
2019-03-28T06:00:18.040Z,15.20
2019-03-28T06:02:47.572Z,15.20
2019-03-28T06:05:17.154Z,15.10
2019-03-28T06:07:46.673Z,15.20
2019-03-28T06:10:16.650Z,15.10
2019-03-28T06:12:46.228Z,15.10
2019-03-28T06:15:17.283Z,15.10
2019-03-28T06:17:46.818Z,15.10
2019-03-28T06:20:17.888Z,15.10
2019-03-28T06:22:47.631Z,15.10
2019-03-28T06:25:17.646Z,15.10
2019-03-28T06:27:47.151Z,15.10
2019-03-28T06:30:17.111Z,15.10
2019-03-28T06:32:46.648Z,15.10
2019-03-28T06:35:16.323Z,15.20
2019-03-28T06:37:45.909Z,15.20
2019-03-28T06:40:15.445Z,15.30
2019-03-28T06:42:44.979Z,15.30
2019-03-28T06:45:14.648Z,15.20
2019-03-28T06:47:44.190Z,15.30
2019-03-28T06:50:14.039Z,15.40
2019-03-28T06:52:43.545Z,15.50
2019-03-28T06:55:13.093Z,15.80
2019-03-28T06:57:44.158Z,16.00
2019-03-28T07:00:14.107Z,16.00
2019-03-28T07:02:43.671Z,16.00
2019-03-28T07:05:13.493Z,16.00
2019-03-28T07:07:42.998Z,16.10
2019-03-28T07:10:12.853Z,15.90
2019-03-28T07:12:42.420Z,15.80
2019-03-28T07:15:12.297Z,15.80
2019-03-28T07:17:41.817Z,15.80
2019-03-28T07:20:11.785Z,15.80
2019-03-28T07:22:41.296Z,15.80
2019-03-28T07:25:25.665Z,15.80
2019-03-28T07:27:55.286Z,15.80
2019-03-28T07:30:24.957Z,15.80
2019-03-28T07:32:54.421Z,15.80
2019-03-28T07:35:23.953Z,15.70
2019-03-28T07:37:53.541Z,15.70
2019-03-28T07:40:23.081Z,15.70
2019-03-28T07:42:52.601Z,15.80
2019-03-28T07:45:22.274Z,15.80
2019-03-28T07:47:51.790Z,15.70
2019-03-28T07:50:22.395Z,15.80
2019-03-28T07:52:51.915Z,15.80
2019-03-28T07:55:21.434Z,15.80
2019-03-28T07:57:50.966Z,15.70
2019-03-28T08:00:20.628Z,15.80
2019-03-28T08:02:50.157Z,15.80
2019-03-28T08:05:19.856Z,15.80
2019-03-28T08:07:49.452Z,15.80
2019-03-28T08:10:20.219Z,15.80
2019-03-28T08:12:49.754Z,15.80
2019-03-28T08:15:19.332Z,15.80
2019-03-28T08:17:48.844Z,15.80
2019-03-28T08:20:18.532Z,15.80
2019-03-28T08:22:48.054Z,15.80
2019-03-28T08:25:17.636Z,15.80
2019-03-28T08:27:47.169Z,15.90
2019-03-28T08:30:19.579Z,15.80
2019-03-28T08:32:50.388Z,15.80
2019-03-28T08:35:19.914Z,15.90
2019-03-28T08:37:49.621Z,15.90
2019-03-28T08:40:34.206Z,15.90
2019-03-28T08:43:03.974Z,15.90
2019-03-28T08:45:34.400Z,15.90
2019-03-28T08:48:04.547Z,15.90
2019-03-28T08:50:35.176Z,15.90
2019-03-28T08:53:05.044Z,15.90
2019-03-28T08:55:34.685Z,15.90
2019-03-28T08:58:04.388Z,15.90
2019-03-28T09:00:50.243Z,15.90
2019-03-28T09:03:05.290Z,15.90
2019-03-28T09:05:34.806Z,16.00
2019-03-28T09:08:04.488Z,16.00
2019-03-28T09:10:33.992Z,16.00
2019-03-28T09:13:03.520Z,16.10
2019-03-28T09:15:42.973Z,16.00
2019-03-28T09:18:05.106Z,16.10
2019-03-28T09:20:35.575Z,16.10
2019-03-28T09:23:05.101Z,16.10
2019-03-28T09:25:34.617Z,16.10
2019-03-28T09:28:04.147Z,16.10
2019-03-28T09:30:47.459Z,16.10
2019-03-28T09:33:07.132Z,16.10
2019-03-28T09:35:36.835Z,16.20
2019-03-28T09:38:06.735Z,16.20
2019-03-28T09:40:36.245Z,16.30
2019-03-28T09:43:05.950Z,16.30
2019-03-28T09:45:35.529Z,16.50
2019-03-28T09:48:05.121Z,16.50
2019-03-28T09:50:34.733Z,16.50
2019-03-28T09:53:04.321Z,16.50
2019-03-28T09:55:33.896Z,16.50
2019-03-28T09:58:03.437Z,16.50
2019-03-28T10:00:33.961Z,16.50
2019-03-28T10:03:04.508Z,16.50
2019-03-28T10:05:34.037Z,16.50
2019-03-28T10:08:03.573Z,16.50
2019-03-28T10:10:33.635Z,16.50
2019-03-28T10:13:03.165Z,16.50
2019-03-28T10:15:32.869Z,16.50
2019-03-28T10:18:02.450Z,16.50
2019-03-28T10:20:32.054Z,16.50
2019-03-28T10:23:01.544Z,16.50
2019-03-28T10:25:31.069Z,16.50
2019-03-28T10:28:00.600Z,16.50
2019-03-28T10:30:41.447Z,16.60
2019-03-28T10:33:11.206Z,16.60
2019-03-28T10:35:40.868Z,16.60
2019-03-28T10:38:10.382Z,16.60
2019-03-28T10:40:40.027Z,16.60
2019-03-28T10:43:09.558Z,16.50
2019-03-28T10:45:39.313Z,16.50
2019-03-28T10:48:08.830Z,16.60
2019-03-28T10:50:45.341Z,16.60
2019-03-28T10:53:09.541Z,16.60
2019-03-28T10:55:39.229Z,16.60
2019-03-28T10:58:18.289Z,16.60
2019-03-28T11:00:40.153Z,16.70
2019-03-28T11:03:09.661Z,16.60
2019-03-28T11:05:39.204Z,16.70
2019-03-28T11:08:08.744Z,16.70
2019-03-28T11:10:38.213Z,16.60
2019-03-28T11:13:09.483Z,16.70
2019-03-28T11:15:38.879Z,16.80
2019-03-28T11:18:08.383Z,16.80
2019-03-28T11:20:39.802Z,16.80
2019-03-28T11:23:09.053Z,16.80
2019-03-28T11:25:38.789Z,16.70
2019-03-28T11:28:08.320Z,16.80
2019-03-28T11:30:37.856Z,16.80
2019-03-28T11:33:07.387Z,16.80
2019-03-28T11:35:36.888Z,16.80
2019-03-28T11:38:09.412Z,16.80
2019-03-28T11:40:38.170Z,16.80
2019-03-28T11:43:08.534Z,16.80
2019-03-28T11:45:38.027Z,16.80
2019-03-28T11:48:07.918Z,16.80
2019-03-28T11:50:37.411Z,16.90
2019-03-28T11:53:06.933Z,16.90
2019-03-28T11:55:36.436Z,16.90
2019-03-28T11:58:05.973Z,17.00
2019-03-28T12:00:35.461Z,16.90
2019-03-28T12:03:05.052Z,17.00
2019-03-28T12:05:35.633Z,16.90
2019-03-28T12:08:05.234Z,17.00
2019-03-28T12:10:34.777Z,16.90
2019-03-28T12:13:04.365Z,16.90
2019-03-28T12:15:33.898Z,17.00
2019-03-28T12:18:03.522Z,17.00
2019-03-28T12:20:33.053Z,17.00
2019-03-28T12:23:02.945Z,17.00
2019-03-28T12:25:32.451Z,17.10
2019-03-28T12:28:01.984Z,17.10
2019-03-28T12:30:31.576Z,17.10
2019-03-28T12:33:01.108Z,17.10
2019-03-28T12:35:30.628Z,17.20
2019-03-28T12:38:00.159Z,17.20
2019-03-28T12:40:30.645Z,17.20
2019-03-28T12:43:00.186Z,17.20
2019-03-28T12:45:29.703Z,17.20
2019-03-28T12:47:59.333Z,17.20
2019-03-28T12:50:28.837Z,17.20
2019-03-28T12:52:58.495Z,17.20
2019-03-28T12:55:27.991Z,17.20
2019-03-28T12:57:57.489Z,17.20
2019-03-28T13:00:32.780Z,17.20
2019-03-28T13:03:02.310Z,17.20
2019-03-28T13:05:34.607Z,17.20
2019-03-28T13:08:02.962Z,17.20
2019-03-28T13:10:32.540Z,17.20
2019-03-28T13:13:02.076Z,17.30
2019-03-28T13:15:31.596Z,17.30
2019-03-28T13:18:01.109Z,17.30
2019-03-28T13:20:30.632Z,17.30
2019-03-28T13:23:00.140Z,17.40
2019-03-28T13:25:29.635Z,17.30
2019-03-28T13:27:59.319Z,17.30
2019-03-28T13:30:28.803Z,17.30
2019-03-28T13:32:59.353Z,17.30
2019-03-28T13:35:28.810Z,17.30
2019-03-28T13:37:58.190Z,17.30
2019-03-28T13:40:27.579Z,17.30
2019-03-28T13:42:56.979Z,17.30
2019-03-28T13:45:26.487Z,17.40
2019-03-28T13:47:55.885Z,17.30
2019-03-28T13:50:25.396Z,17.40
2019-03-28T13:52:54.792Z,17.30
2019-03-28T13:55:24.245Z,17.40
2019-03-28T13:57:53.643Z,17.30
2019-03-28T14:00:31.429Z,17.30
2019-03-28T14:03:00.819Z,17.40
2019-03-28T14:05:30.671Z,17.30
2019-03-28T14:08:00.068Z,17.40
2019-03-28T14:10:29.474Z,17.40
2019-03-28T14:12:58.865Z,17.40
2019-03-28T14:15:29.459Z,17.40
2019-03-28T14:17:58.876Z,17.40
2019-03-28T14:20:28.351Z,17.40
2019-03-28T14:22:57.823Z,17.40
2019-03-28T14:25:27.299Z,17.40
2019-03-28T14:27:56.890Z,17.50
2019-03-28T14:30:26.455Z,17.50
2019-03-28T14:33:10.171Z,17.50
2019-03-28T14:35:27.076Z,17.40
2019-03-28T14:37:56.587Z,17.40
2019-03-28T14:40:26.051Z,17.40
2019-03-28T14:42:55.536Z,17.50
2019-03-28T14:45:24.940Z,17.50
2019-03-28T14:47:54.331Z,17.50
2019-03-28T14:50:37.742Z,17.50
2019-03-28T14:53:07.300Z,17.50
2019-03-28T14:55:36.918Z,17.50
2019-03-28T14:58:07.098Z,17.60
2019-03-28T15:00:47.011Z,17.50
2019-03-28T15:03:25.710Z,17.60
2019-03-28T15:05:48.120Z,17.50
2019-03-28T15:08:18.157Z,17.50
2019-03-28T15:10:47.869Z,17.50
2019-03-28T15:13:17.370Z,17.40
2019-03-28T15:15:46.839Z,17.50
2019-03-28T15:18:16.308Z,17.50
2019-03-28T15:20:46.905Z,17.50
2019-03-28T15:23:16.301Z,17.60
2019-03-28T15:25:59.652Z,17.60
2019-03-28T15:28:29.052Z,17.60
2019-03-28T15:30:58.517Z,17.50
2019-03-28T15:33:38.888Z,17.50
2019-03-28T15:35:59.000Z,17.60
2019-03-28T15:38:31.187Z,17.60
2019-03-28T15:40:59.470Z,17.60
2019-03-28T15:43:28.865Z,17.60
2019-03-28T15:45:58.272Z,17.60
2019-03-28T15:48:28.919Z,17.60
2019-03-28T15:50:58.303Z,17.60
2019-03-28T15:53:27.703Z,17.60
2019-03-28T15:55:58.151Z,17.60
2019-03-28T15:58:27.554Z,17.60
2019-03-28T16:00:56.936Z,17.60
2019-03-28T16:03:27.120Z,17.60
2019-03-28T16:05:58.583Z,17.60
2019-03-28T16:08:28.038Z,17.70
2019-03-28T16:10:57.544Z,17.70
2019-03-28T16:13:26.939Z,17.70
2019-03-28T16:15:56.340Z,17.60
2019-03-28T16:18:25.805Z,17.60
2019-03-28T16:20:55.199Z,17.60
2019-03-28T16:23:24.570Z,17.60
2019-03-28T16:25:53.971Z,17.60
2019-03-28T16:28:24.419Z,17.60
2019-03-28T16:30:53.815Z,17.60
2019-03-28T16:33:23.956Z,17.60
2019-03-28T16:35:57.895Z,17.60
2019-03-28T16:38:27.335Z,17.70
2019-03-28T16:40:58.083Z,17.70
2019-03-28T16:43:27.541Z,17.70
2019-03-28T16:45:57.000Z,17.70
2019-03-28T16:48:26.544Z,17.60
2019-03-28T16:50:55.956Z,17.60
2019-03-28T16:53:25.387Z,17.60
2019-03-28T16:55:55.305Z,17.50
2019-03-28T16:58:24.771Z,17.60
2019-03-28T17:01:07.892Z,17.50
2019-03-28T17:03:37.320Z,17.40
2019-03-28T17:06:07.702Z,17.40
2019-03-28T17:08:39.853Z,17.40
2019-03-28T17:11:12.024Z,17.40
2019-03-28T17:13:40.332Z,17.40
2019-03-28T17:16:09.803Z,17.30
2019-03-28T17:18:39.363Z,17.40
2019-03-28T17:21:09.876Z,17.40
2019-03-28T17:23:39.265Z,17.40
2019-03-28T17:26:09.429Z,17.40
2019-03-28T17:28:38.827Z,17.40
2019-03-28T17:31:08.223Z,17.30
2019-03-28T17:33:37.695Z,17.40
2019-03-28T17:36:07.176Z,17.40
2019-03-28T17:38:36.575Z,17.30
2019-03-28T17:41:06.669Z,17.20
2019-03-28T17:43:36.471Z,17.20
2019-03-28T17:46:06.112Z,17.20
2019-03-28T17:48:44.292Z,17.20
2019-03-28T17:51:13.751Z,17.20
2019-03-28T17:53:43.147Z,17.20
2019-03-28T17:56:12.552Z,17.20
2019-03-28T17:58:41.951Z,17.20
2019-03-28T18:01:11.361Z,17.20
2019-03-28T18:03:41.041Z,17.20
2019-03-28T18:06:10.500Z,17.10
2019-03-28T18:08:41.228Z,17.10
2019-03-28T18:11:10.800Z,17.10
2019-03-28T18:13:41.969Z,17.10
2019-03-28T18:16:18.157Z,16.90
2019-03-28T18:18:47.862Z,16.80
2019-03-28T18:21:17.260Z,16.70
2019-03-28T18:23:46.675Z,16.70
2019-03-28T18:26:16.125Z,16.70
2019-03-28T18:28:45.539Z,16.70
2019-03-28T18:31:15.011Z,16.80
2019-03-28T18:33:44.419Z,16.80
2019-03-28T18:36:13.815Z,16.90
2019-03-28T18:38:43.229Z,16.90
2019-03-28T18:41:12.786Z,16.80
2019-03-28T18:43:42.416Z,16.70
2019-03-28T18:46:14.583Z,16.50
2019-03-28T18:48:43.318Z,16.40
2019-03-28T18:51:12.817Z,16.40
2019-03-28T18:53:42.212Z,16.30
2019-03-28T18:56:12.646Z,16.20
2019-03-28T18:58:42.237Z,16.20
2019-03-28T19:01:11.628Z,16.20
2019-03-28T19:03:41.213Z,16.20
2019-03-28T19:06:10.679Z,16.10
2019-03-28T19:08:40.073Z,16.00
2019-03-28T19:11:09.475Z,16.00
2019-03-28T19:13:39.166Z,16.00
2019-03-28T19:16:10.861Z,15.90
2019-03-28T19:18:40.247Z,15.90
2019-03-28T19:21:09.651Z,15.90
2019-03-28T19:23:39.024Z,15.80
2019-03-28T19:26:10.699Z,15.80
2019-03-28T19:28:39.552Z,15.80
2019-03-28T19:31:09.017Z,15.80
2019-03-28T19:33:38.465Z,15.70
2019-03-28T19:36:08.151Z,15.70
2019-03-28T19:38:38.091Z,15.70
2019-03-28T19:41:07.476Z,15.70
2019-03-28T19:43:37.589Z,15.70
2019-03-28T19:46:06.993Z,15.60
2019-03-28T19:48:36.404Z,15.50
2019-03-28T19:51:22.777Z,15.50
2019-03-28T19:53:52.350Z,15.50
2019-03-28T19:56:21.741Z,15.50
2019-03-28T19:58:51.134Z,15.40
2019-03-28T20:01:35.646Z,15.40
2019-03-28T20:04:06.166Z,15.50
2019-03-28T20:06:35.696Z,15.60
2019-03-28T20:09:16.229Z,15.50
2019-03-28T20:11:38.799Z,15.50
2019-03-28T20:14:08.345Z,15.40
2019-03-28T20:16:37.836Z,15.40
2019-03-28T20:19:08.044Z,15.50
2019-03-28T20:21:38.526Z,15.60
2019-03-28T20:24:08.083Z,15.50
2019-03-28T20:26:37.651Z,15.50
2019-03-28T20:29:07.219Z,15.40
2019-03-28T20:31:36.690Z,15.30
2019-03-28T20:34:06.099Z,15.30
2019-03-28T20:36:37.986Z,15.20
2019-03-28T20:39:09.753Z,15.10
2019-03-28T20:41:39.507Z,15.00
2019-03-28T20:44:11.511Z,14.90
2019-03-28T20:46:40.926Z,14.80
2019-03-28T20:49:10.759Z,14.80
2019-03-28T20:51:40.152Z,14.80
2019-03-28T20:54:09.558Z,14.80
2019-03-28T20:56:38.948Z,14.70
2019-03-28T20:59:08.407Z,14.70
2019-03-28T21:01:37.983Z,14.70
2019-03-28T21:04:07.873Z,14.70
2019-03-28T21:06:37.402Z,14.70
2019-03-28T21:09:26.145Z,14.70
2019-03-28T21:11:55.566Z,14.70
2019-03-28T21:14:24.969Z,14.80
2019-03-28T21:16:54.536Z,14.80
2019-03-28T21:19:23.951Z,14.80
2019-03-28T21:21:53.406Z,14.80
2019-03-28T21:24:23.721Z,14.80
2019-03-28T21:26:53.125Z,14.70
2019-03-28T21:29:22.507Z,14.70
2019-03-28T21:31:52.303Z,14.70
2019-03-28T21:34:21.864Z,14.60
2019-03-28T21:36:51.287Z,14.60
2019-03-28T21:39:20.726Z,14.60
2019-03-28T21:41:50.375Z,14.60
2019-03-28T21:44:19.773Z,14.60
2019-03-28T21:46:49.174Z,14.60
2019-03-28T21:49:18.550Z,14.50
2019-03-28T21:51:47.996Z,14.50
2019-03-28T21:54:17.408Z,14.60
2019-03-28T21:56:46.864Z,14.60
2019-03-28T21:59:17.702Z,14.60
2019-03-28T22:01:47.443Z,14.60
2019-03-28T22:04:16.846Z,14.70
2019-03-28T22:06:46.312Z,14.60
2019-03-28T22:09:15.708Z,14.60
2019-03-28T22:11:45.170Z,14.60
2019-03-28T22:14:14.564Z,14.70
2019-03-28T22:16:44.079Z,14.70
2019-03-28T22:19:13.492Z,14.70
2019-03-28T22:21:42.884Z,14.70
2019-03-28T22:24:12.854Z,14.70
2019-03-28T22:26:45.898Z,14.70
2019-03-28T22:29:13.548Z,14.70
2019-03-28T22:31:42.935Z,14.70
2019-03-28T22:34:12.532Z,14.60
2019-03-28T22:36:41.947Z,14.60
2019-03-28T22:39:11.319Z,14.60
2019-03-28T22:41:40.826Z,14.60
2019-03-28T22:44:10.207Z,14.60
2019-03-28T22:46:39.882Z,14.70
2019-03-28T22:49:09.378Z,14.70
2019-03-28T22:51:38.782Z,14.70
2019-03-28T22:54:08.236Z,14.70
2019-03-28T22:56:37.722Z,14.70
2019-03-28T22:59:07.155Z,14.60
2019-03-28T23:01:36.829Z,14.60
2019-03-28T23:04:08.244Z,14.60
2019-03-28T23:06:37.703Z,14.60
2019-03-28T23:09:07.642Z,14.70
2019-03-28T23:11:40.311Z,14.60
2019-03-28T23:14:08.187Z,14.60
2019-03-28T23:16:37.771Z,14.60
2019-03-28T23:19:07.174Z,14.60
2019-03-28T23:21:36.558Z,14.50
2019-03-28T23:24:05.948Z,14.50
2019-03-28T23:26:35.575Z,14.40
2019-03-28T23:29:04.988Z,14.30
2019-03-28T23:31:35.466Z,14.30
2019-03-28T23:34:04.923Z,14.30
2019-03-28T23:36:34.579Z,14.40
2019-03-28T23:39:05.408Z,14.40
2019-03-28T23:41:35.683Z,14.40
2019-03-28T23:44:25.494Z,14.30
2019-03-28T23:46:54.908Z,14.40
2019-03-28T23:49:24.359Z,14.30
2019-03-28T23:51:53.866Z,14.30
2019-03-28T23:54:23.270Z,14.30
2019-03-28T23:56:52.688Z,14.30
2019-03-28T23:59:22.114Z,14.30
